createdAt,value
2018-12-26T13:39:48.716Z,26.69
2018-12-26T13:42:17.302Z,32.25
2018-12-26T13:44:45.783Z,33.14
2018-12-26T13:47:14.058Z,31.87
2018-12-26T13:49:43.439Z,26.47
2018-12-26T13:52:11.689Z,26.49
2018-12-26T13:54:40.322Z,26.91
2018-12-26T13:57:08.802Z,27.02
2018-12-26T13:59:37.252Z,26.86
2018-12-26T14:02:05.506Z,25.40
2018-12-26T14:04:33.766Z,25.10
2018-12-26T14:07:02.126Z,24.52
2018-12-26T14:09:30.375Z,24.25
2018-12-26T14:11:58.644Z,24.18
2018-12-26T14:14:27.147Z,23.98
2018-12-26T14:16:55.670Z,24.05
2018-12-26T14:19:23.919Z,24.18
2018-12-26T14:21:52.193Z,24.18
2018-12-26T14:24:20.636Z,24.15
2018-12-26T14:26:48.909Z,24.13
2018-12-26T14:29:17.155Z,24.12
2018-12-26T14:31:45.496Z,24.11
2018-12-26T14:34:13.739Z,24.05
2018-12-26T14:36:42.056Z,24.00
2018-12-26T14:39:10.304Z,24.03
2018-12-26T14:41:38.571Z,24.00
2018-12-26T14:44:06.817Z,23.94
2018-12-26T14:46:35.126Z,23.94
2018-12-26T14:49:03.367Z,23.95
2018-12-26T14:51:31.636Z,23.93
2018-12-26T14:53:59.949Z,23.89
2018-12-26T14:56:28.277Z,23.91
2018-12-26T14:58:56.518Z,23.88
2018-12-26T15:01:24.783Z,23.86
2018-12-26T15:03:53.075Z,23.88
2018-12-26T15:06:21.344Z,23.84
2018-12-26T15:08:49.661Z,23.88
2018-12-26T15:11:17.931Z,23.88
2018-12-26T15:13:46.176Z,23.86
2018-12-26T15:16:14.438Z,23.86
2018-12-26T15:18:42.685Z,23.85
2018-12-26T15:21:11.135Z,23.82
2018-12-26T15:23:39.376Z,23.80
2018-12-26T15:26:07.670Z,23.83
2018-12-26T15:28:35.919Z,23.78
2018-12-26T15:31:04.184Z,23.78
2018-12-26T15:33:32.432Z,23.79
2018-12-26T15:36:00.701Z,23.79
2018-12-26T15:38:28.945Z,23.79
2018-12-26T15:40:57.263Z,23.79
2018-12-26T15:43:25.509Z,23.78
2018-12-26T15:45:53.775Z,23.76
2018-12-26T15:48:22.016Z,23.76
2018-12-26T15:50:50.284Z,23.72
2018-12-26T15:53:18.526Z,23.70
2018-12-26T15:55:46.813Z,23.91
2018-12-26T15:58:15.055Z,23.96
2018-12-26T16:00:43.324Z,24.01
2018-12-26T16:03:11.801Z,24.11
2018-12-26T16:05:40.043Z,24.04
2018-12-26T16:08:08.310Z,24.01
2018-12-26T16:10:36.558Z,24.00
2018-12-26T16:13:04.859Z,24.03
2018-12-26T16:15:33.103Z,24.03
2018-12-26T16:18:01.372Z,24.05
2018-12-26T16:20:29.623Z,24.05
2018-12-26T16:22:57.885Z,24.06
2018-12-26T16:25:26.131Z,23.96
2018-12-26T16:27:55.184Z,24.01
2018-12-26T16:30:24.085Z,24.15
2018-12-26T16:34:57.656Z,24.15
2018-12-26T16:37:25.924Z,24.17
2018-12-26T16:39:54.171Z,24.23
2018-12-26T16:42:21.803Z,24.61
2018-12-26T16:44:49.427Z,24.68
2018-12-26T16:47:17.076Z,24.17
2018-12-26T16:49:44.830Z,23.94
2018-12-26T16:52:12.477Z,23.85
2018-12-26T16:54:40.097Z,23.82
2018-12-26T16:57:07.743Z,23.81
2018-12-26T16:59:35.367Z,23.79
2018-12-26T17:02:03.021Z,23.79
2018-12-26T17:04:30.641Z,23.78
2018-12-26T17:06:58.288Z,23.78
2018-12-26T17:09:25.907Z,23.79
2018-12-26T17:11:53.555Z,23.78
2018-12-26T17:14:21.180Z,23.78
2018-12-26T17:16:48.819Z,23.77
2018-12-26T17:19:16.447Z,23.76
2018-12-26T17:21:44.152Z,23.76
2018-12-26T17:24:16.483Z,23.76
2018-12-26T17:26:41.072Z,23.75
2018-12-26T17:29:08.700Z,23.75
2018-12-26T17:31:36.346Z,23.74
2018-12-26T17:34:03.965Z,23.74
2018-12-26T17:36:31.620Z,23.73
2018-12-26T17:38:59.259Z,23.72
2018-12-26T17:41:26.901Z,23.73
2018-12-26T17:43:54.528Z,23.72
2018-12-26T17:46:22.155Z,23.71
2018-12-26T17:48:49.800Z,23.70
2018-12-26T17:51:17.428Z,23.69
2018-12-26T17:53:46.695Z,23.68
2018-12-26T17:56:21.700Z,23.67
2018-12-26T17:58:56.739Z,23.67
2018-12-26T18:01:25.999Z,23.66
2018-12-26T18:03:53.643Z,23.64
2018-12-26T18:06:21.269Z,23.64
2018-12-26T18:08:48.924Z,23.64
2018-12-26T18:11:16.544Z,23.64
2018-12-26T18:13:44.200Z,23.63
2018-12-26T18:16:11.828Z,23.62
2018-12-26T18:18:39.474Z,23.62
2018-12-26T18:21:07.550Z,23.62
2018-12-26T18:23:35.344Z,23.61
2018-12-26T18:26:02.972Z,23.61
2018-12-26T18:28:30.622Z,23.61
2018-12-26T18:30:58.249Z,23.61
2018-12-26T18:33:25.896Z,23.60
2018-12-26T18:35:53.525Z,23.60
2018-12-26T18:38:21.176Z,23.60
2018-12-26T18:40:48.868Z,23.62
2018-12-26T18:43:16.520Z,23.61
2018-12-26T18:45:44.143Z,23.61
2018-12-26T18:48:11.797Z,23.61
2018-12-26T18:50:39.443Z,23.60
2018-12-26T18:53:07.091Z,23.61
2018-12-26T18:55:34.715Z,23.61
2018-12-26T18:58:02.409Z,23.61
2018-12-26T19:00:30.105Z,23.60
2018-12-26T19:02:57.735Z,23.59
2018-12-26T19:05:25.384Z,23.60
2018-12-26T19:07:53.013Z,23.59
2018-12-26T19:10:20.659Z,23.60
2018-12-26T19:12:48.639Z,23.61
2018-12-26T19:15:16.287Z,23.62
2018-12-26T19:17:44.812Z,23.65
2018-12-26T19:20:12.455Z,23.66
2018-12-26T19:22:40.557Z,23.64
